Montague, MA (01351)

8:41 AM EDT on September 22, 2014 (GMT -0400)
Montague Center Weatherbot | Change Station
CLOSE
Current Station
Personal Weather Station
Location: Montague, MA
Elevation: 454 ft
Nearby Weather Stations

Elev 454 ft 42.53 °N, 72.55 °W | Updated 14 minutes ago

Mostly Cloudy
Mostly Cloudy
59.0 °F
Feels Like 59.0 °F
N
1.0
Wind Variable Wind from East
Gusts 5.0 mph

Today
High -- | Low -- °F
--% Chance of Precip.
Yesterday
High -- | Low -- °F
Precip. -- in
6:37 AM 6:47 PM
Waning Crescent, 3% visible
Pressure 29.69 in
Visibility 10.0 miles
Clouds Mostly Cloudy 4200 ft
Dew Point 54 °F
Humidity 84%
Rainfall 0.00 in
Snow Depth Not available.
UV 0 out of 12
Pollen 3.90 out of 12
Air Quality Not available.
Flu Activity Not available.
METAR KORE 221152Z AUTO 26006KT 10SM BKN042 17/11 A2969 RMK AO2 SLP053 60000 70004 T01670111 10183 20139 51026

More Conditions Fewer Conditions

Pressure 29.69 in
Visibility 10.0 miles
Clouds Mostly Cloudy 4200 ft
Dew Point 54 °F
Humidity 84%
Rainfall 0.00 in
Snow Depth Not available.
UV 0 out of 12
Pollen 3.90 out of 12
Air Quality Not available.
Flu Activity Not available.
METAR KORE 221152Z AUTO 26006KT 10SM BKN042 17/11 A2969 RMK AO2 SLP053 60000 70004 T01670111 10183 20139 51026

More Conditions Fewer Conditions

10-Day Weather Forecast

Almanac

Astronomy

Sep. 22, 2014 Rise Set
Actual Time 6:37 AM EDT 6:47 PM EDT
Civil Twilight 6:09 AM EDT 7:15 PM EDT
Nautical Twilight 5:36 AM EDT 7:48 PM EDT
Astronomical Twilight 5:02 AM EDT 8:22 PM EDT
Moon 5:02 AM EDT 5:54 PM EDT
Length of Visible Light 13h 06m
Length of Day
12h 10m
Tomorrow will be 2m 51s shorter.
Waning Crescent, 3% of the Moon is Illuminated
Today
Waning Crescent
Sep 24
New
Oct 1
First Quarter
Oct 8
Full
Oct 15
Last Quarter

Today's Extremes

State Highs State Lows

Community

WunderPhotos

Upload Photos

1,755,419 photos uploaded!

Nearby

Air Quality

  Air Quality AQ Index Pollutant
Monday Good
PM2.5
Monday Good
OZONE

Snow Depth

Station Depth Elevation
No new snow has been reported.

Earthquake Activity

City Distance Mag. Time & Date
No recent earthquake activity has been reported nearby.
Minimum magnitude displayed is 2.5.

Coastal Water Temperatures

Place Temperature
No Stations Reporting

Nearby Weather Stations